sensor_id;sensor_type;location;lat;lon;timestamp;pressure;altitude;pressure_sealevel;temperature;humidity
73240;BME280;61452;40.054;4.110;2022-08-19T00:04:37;101707.34;;;26.30;62.77
73240;BME280;61452;40.054;4.110;2022-08-19T00:09:40;101699.13;;;26.32;63.41
73240;BME280;61452;40.054;4.110;2022-08-19T00:14:42;101697.41;;;26.31;62.99
73240;BME280;61452;40.054;4.110;2022-08-19T00:19:44;101708.03;;;26.32;62.98
73240;BME280;61452;40.054;4.110;2022-08-19T00:24:46;101699.13;;;26.32;63.73
73240;BME280;61452;40.054;4.110;2022-08-19T00:29:51;101698.66;;;26.36;64.29
73240;BME280;61452;40.054;4.110;2022-08-19T00:34:53;101705.06;;;26.35;62.27
73240;BME280;61452;40.054;4.110;2022-08-19T00:39:55;101709.25;;;26.38;60.32
73240;BME280;61452;40.054;4.110;2022-08-19T00:44:58;101701.56;;;26.43;59.67
73240;BME280;61452;40.054;4.110;2022-08-19T00:50:00;101696.38;;;26.41;61.53
73240;BME280;61452;40.054;4.110;2022-08-19T00:55:04;101687.97;;;26.44;59.02
73240;BME280;61452;40.054;4.110;2022-08-19T01:00:10;101701.50;;;26.52;56.17
73240;BME280;61452;40.054;4.110;2022-08-19T01:05:17;101688.66;;;26.46;54.16
73240;BME280;61452;40.054;4.110;2022-08-19T01:10:24;101683.09;;;26.48;54.29
73240;BME280;61452;40.054;4.110;2022-08-19T01:15:32;101676.50;;;26.42;54.57
73240;BME280;61452;40.054;4.110;2022-08-19T01:20:34;101679.88;;;26.44;54.73
73240;BME280;61452;40.054;4.110;2022-08-19T01:25:47;101675.72;;;26.50;55.96
73240;BME280;61452;40.054;4.110;2022-08-19T01:30:51;101673.72;;;26.52;56.31
73240;BME280;61452;40.054;4.110;2022-08-19T01:36:12;101664.34;;;26.56;56.24
73240;BME280;61452;40.054;4.110;2022-08-19T01:41:14;101681.47;;;26.55;56.37
73240;BME280;61452;40.054;4.110;2022-08-19T01:46:18;101664.44;;;26.46;55.27
73240;BME280;61452;40.054;4.110;2022-08-19T01:51:26;101669.06;;;26.36;55.83
73240;BME280;61452;40.054;4.110;2022-08-19T01:56:29;101661.81;;;26.37;56.72
73240;BME280;61452;40.054;4.110;2022-08-19T02:01:31;101667.75;;;26.40;56.51
73240;BME280;61452;40.054;4.110;2022-08-19T02:06:35;101669.13;;;26.44;55.45
73240;BME280;61452;40.054;4.110;2022-08-19T02:11:37;101659.06;;;26.46;55.35
73240;BME280;61452;40.054;4.110;2022-08-19T02:16:39;101641.56;;;26.25;54.54
73240;BME280;61452;40.054;4.110;2022-08-19T02:21:42;101649.06;;;26.39;53.71
73240;BME280;61452;40.054;4.110;2022-08-19T02:26:45;101663.22;;;26.41;54.66
73240;BME280;61452;40.054;4.110;2022-08-19T02:31:47;101666.59;;;26.43;54.32
73240;BME280;61452;40.054;4.110;2022-08-19T02:36:49;101666.44;;;26.44;54.50
73240;BME280;61452;40.054;4.110;2022-08-19T02:41:52;101671.59;;;26.38;54.54
73240;BME280;61452;40.054;4.110;2022-08-19T02:46:55;101677.34;;;26.43;54.13
73240;BME280;61452;40.054;4.110;2022-08-19T02:51:57;101669.06;;;26.36;54.63
73240;BME280;61452;40.054;4.110;2022-08-19T02:56:59;101671.97;;;26.43;54.60
73240;BME280;61452;40.054;4.110;2022-08-19T03:02:01;101670.91;;;26.36;55.42
73240;BME280;61452;40.054;4.110;2022-08-19T03:07:03;101656.81;;;26.42;54.64
73240;BME280;61452;40.054;4.110;2022-08-19T03:12:11;101673.66;;;26.44;54.64
73240;BME280;61452;40.054;4.110;2022-08-19T03:17:13;101677.06;;;26.46;55.25
73240;BME280;61452;40.054;4.110;2022-08-19T03:22:16;101679.38;;;26.41;55.62
73240;BME280;61452;40.054;4.110;2022-08-19T03:27:18;101684.97;;;26.47;55.18
73240;BME280;61452;40.054;4.110;2022-08-19T03:32:20;101680.75;;;26.45;53.96
73240;BME280;61452;40.054;4.110;2022-08-19T03:37:33;101689.81;;;26.44;53.59
73240;BME280;61452;40.054;4.110;2022-08-19T03:42:36;101690.28;;;26.39;54.00
73240;BME280;61452;40.054;4.110;2022-08-19T03:47:50;101691.13;;;26.40;53.43
73240;BME280;61452;40.054;4.110;2022-08-19T03:52:52;101696.50;;;26.40;52.47
73240;BME280;61452;40.054;4.110;2022-08-19T03:57:54;101690.97;;;26.41;52.92
73240;BME280;61452;40.054;4.110;2022-08-19T04:02:59;101699.72;;;26.43;53.55
73240;BME280;61452;40.054;4.110;2022-08-19T04:08:03;101704.81;;;26.46;52.59
73240;BME280;61452;40.054;4.110;2022-08-19T04:13:05;101693.06;;;26.47;53.70
73240;BME280;61452;40.054;4.110;2022-08-19T04:18:09;101697.03;;;26.43;52.94
73240;BME280;61452;40.054;4.110;2022-08-19T04:23:13;101698.88;;;26.43;51.85
73240;BME280;61452;40.054;4.110;2022-08-19T04:28:16;101703.13;;;26.45;52.28
73240;BME280;61452;40.054;4.110;2022-08-19T04:33:21;101708.97;;;26.41;53.48
73240;BME280;61452;40.054;4.110;2022-08-19T04:38:27;101701.41;;;26.44;52.98
73240;BME280;61452;40.054;4.110;2022-08-19T04:43:30;101710.84;;;26.48;53.23
73240;BME280;61452;40.054;4.110;2022-08-19T04:48:32;101721.09;;;26.45;53.18
73240;BME280;61452;40.054;4.110;2022-08-19T04:53:36;101724.63;;;26.45;54.66
73240;BME280;61452;40.054;4.110;2022-08-19T04:58:41;101728.31;;;26.44;53.30
73240;BME280;61452;40.054;4.110;2022-08-19T05:03:44;101729.88;;;26.47;54.20
73240;BME280;61452;40.054;4.110;2022-08-19T05:08:46;101734.94;;;26.50;54.69
73240;BME280;61452;40.054;4.110;2022-08-19T05:13:50;101734.09;;;26.49;54.05
73240;BME280;61452;40.054;4.110;2022-08-19T05:18:54;101737.78;;;26.48;54.45
73240;BME280;61452;40.054;4.110;2022-08-19T05:24:15;101742.00;;;26.51;54.83
73240;BME280;61452;40.054;4.110;2022-08-19T05:29:20;101729.31;;;26.43;54.54
73240;BME280;61452;40.054;4.110;2022-08-19T05:34:24;101751.78;;;26.52;54.26
73240;BME280;61452;40.054;4.110;2022-08-19T05:39:29;101734.63;;;26.53;54.19
73240;BME280;61452;40.054;4.110;2022-08-19T05:44:34;101743.56;;;26.53;55.40
73240;BME280;61452;40.054;4.110;2022-08-19T05:49:37;101734.94;;;26.50;54.99
73240;BME280;61452;40.054;4.110;2022-08-19T05:54:40;101741.25;;;26.58;55.48
73240;BME280;61452;40.054;4.110;2022-08-19T05:59:43;101752.16;;;26.57;55.91
73240;BME280;61452;40.054;4.110;2022-08-19T06:04:47;101760.09;;;26.58;54.99
73240;BME280;61452;40.054;4.110;2022-08-19T06:09:49;101756.53;;;26.58;55.20
73240;BME280;61452;40.054;4.110;2022-08-19T06:15:06;101760.94;;;26.59;55.50
73240;BME280;61452;40.054;4.110;2022-08-19T06:20:10;101759.72;;;26.53;54.39
73240;BME280;61452;40.054;4.110;2022-08-19T06:25:14;101764.06;;;26.54;54.92
73240;BME280;61452;40.054;4.110;2022-08-19T06:30:16;101766.75;;;26.54;54.66
73240;BME280;61452;40.054;4.110;2022-08-19T06:35:19;101764.25;;;26.53;54.95
73240;BME280;61452;40.054;4.110;2022-08-19T06:40:21;101772.97;;;26.55;54.82
73240;BME280;61452;40.054;4.110;2022-08-19T06:45:23;101781.53;;;26.50;54.84
73240;BME280;61452;40.054;4.110;2022-08-19T06:50:36;101791.16;;;26.53;54.41
73240;BME280;61452;40.054;4.110;2022-08-19T06:55:41;101804.28;;;26.56;54.28
73240;BME280;61452;40.054;4.110;2022-08-19T07:00:43;101805.13;;;26.56;54.74
73240;BME280;61452;40.054;4.110;2022-08-19T07:05:45;101805.47;;;26.53;54.80
73240;BME280;61452;40.054;4.110;2022-08-19T07:10:47;101805.28;;;26.55;54.28
73240;BME280;61452;40.054;4.110;2022-08-19T07:15:50;101807.31;;;26.53;53.74
73240;BME280;61452;40.054;4.110;2022-08-19T07:21:03;101806.84;;;26.57;53.81
73240;BME280;61452;40.054;4.110;2022-08-19T07:26:31;101812.91;;;26.60;55.19
73240;BME280;61452;40.054;4.110;2022-08-19T07:31:34;101828.03;;;26.61;54.85
73240;BME280;61452;40.054;4.110;2022-08-19T07:36:39;101832.44;;;26.62;55.34
73240;BME280;61452;40.054;4.110;2022-08-19T07:41:42;101842.28;;;26.53;56.06
73240;BME280;61452;40.054;4.110;2022-08-19T07:46:48;101843.38;;;26.60;54.29
73240;BME280;61452;40.054;4.110;2022-08-19T07:51:58;101838.19;;;26.49;56.30
73240;BME280;61452;40.054;4.110;2022-08-19T07:57:01;101822.97;;;26.57;54.54
73240;BME280;61452;40.054;4.110;2022-08-19T08:02:04;101828.50;;;26.56;55.79
73240;BME280;61452;40.054;4.110;2022-08-19T08:07:07;101818.59;;;26.56;54.47
73240;BME280;61452;40.054;4.110;2022-08-19T08:12:38;101823.69;;;26.60;55.38
73240;BME280;61452;40.054;4.110;2022-08-19T08:17:58;101824.06;;;26.65;54.75
73240;BME280;61452;40.054;4.110;2022-08-19T08:23:01;101835.69;;;26.65;54.77
73240;BME280;61452;40.054;4.110;2022-08-19T08:28:22;101845.22;;;26.60;56.72
73240;BME280;61452;40.054;4.110;2022-08-19T08:33:26;101849.13;;;26.65;56.62
73240;BME280;61452;40.054;4.110;2022-08-19T08:38:35;101854.19;;;26.68;56.67
73240;BME280;61452;40.054;4.110;2022-08-19T08:43:45;101830.59;;;26.62;55.42
73240;BME280;61452;40.054;4.110;2022-08-19T08:48:57;101851.38;;;26.70;55.68
73240;BME280;61452;40.054;4.110;2022-08-19T08:54:10;101848.91;;;26.76;57.12
73240;BME280;61452;40.054;4.110;2022-08-19T08:59:22;101847.72;;;26.79;56.28
73240;BME280;61452;40.054;4.110;2022-08-19T09:04:27;101857.50;;;26.80;54.77
73240;BME280;61452;40.054;4.110;2022-08-19T09:09:38;101852.97;;;26.80;55.97
73240;BME280;61452;40.054;4.110;2022-08-19T09:25:15;101848.66;;;26.70;54.41
73240;BME280;61452;40.054;4.110;2022-08-19T09:30:27;101878.03;;;26.90;57.06
73240;BME280;61452;40.054;4.110;2022-08-19T09:35:32;101846.06;;;26.78;55.88
73240;BME280;61452;40.054;4.110;2022-08-19T09:40:53;101868.47;;;26.96;55.35
73240;BME280;61452;40.054;4.110;2022-08-19T09:45:55;101890.03;;;26.96;55.17
73240;BME280;61452;40.054;4.110;2022-08-19T09:51:04;101881.94;;;26.96;56.25
73240;BME280;61452;40.054;4.110;2022-08-19T09:56:13;101880.03;;;26.88;57.51
73240;BME280;61452;40.054;4.110;2022-08-19T10:01:22;101878.88;;;26.91;57.06
73240;BME280;61452;40.054;4.110;2022-08-19T10:06:26;101869.56;;;27.03;55.27
73240;BME280;61452;40.054;4.110;2022-08-19T10:11:47;101864.00;;;27.05;55.61
73240;BME280;61452;40.054;4.110;2022-08-19T10:16:55;101876.63;;;27.22;56.95
73240;BME280;61452;40.054;4.110;2022-08-19T10:22:03;101871.59;;;27.27;54.82
73240;BME280;61452;40.054;4.110;2022-08-19T10:27:05;101890.75;;;27.24;58.37
73240;BME280;61452;40.054;4.110;2022-08-19T10:32:09;101893.47;;;27.24;59.74
73240;BME280;61452;40.054;4.110;2022-08-19T10:37:11;101911.72;;;27.12;60.32
73240;BME280;61452;40.054;4.110;2022-08-19T10:42:16;101902.41;;;27.07;63.01
73240;BME280;61452;40.054;4.110;2022-08-19T10:47:20;101886.41;;;27.05;62.85
73240;BME280;61452;40.054;4.110;2022-08-19T10:52:26;101893.34;;;27.08;60.98
73240;BME280;61452;40.054;4.110;2022-08-19T10:57:39;101893.47;;;27.06;60.87
73240;BME280;61452;40.054;4.110;2022-08-19T11:03:02;101891.38;;;27.18;60.08
73240;BME280;61452;40.054;4.110;2022-08-19T11:08:04;101887.63;;;27.11;59.38
73240;BME280;61452;40.054;4.110;2022-08-19T11:13:24;101895.25;;;27.15;60.33
73240;BME280;61452;40.054;4.110;2022-08-19T11:18:26;101916.09;;;27.13;61.92
73240;BME280;61452;40.054;4.110;2022-08-19T11:23:29;101895.69;;;27.11;62.34
73240;BME280;61452;40.054;4.110;2022-08-19T11:28:31;101888.94;;;27.07;61.54
73240;BME280;61452;40.054;4.110;2022-08-19T11:33:33;101887.78;;;27.09;60.58
73240;BME280;61452;40.054;4.110;2022-08-19T11:38:36;101892.84;;;27.12;63.67
73240;BME280;61452;40.054;4.110;2022-08-19T11:43:38;101881.00;;;27.05;63.81
73240;BME280;61452;40.054;4.110;2022-08-19T11:48:41;101881.09;;;27.13;64.09
73240;BME280;61452;40.054;4.110;2022-08-19T11:53:44;101879.75;;;27.17;63.14
73240;BME280;61452;40.054;4.110;2022-08-19T11:58:47;101875.06;;;27.19;61.88
73240;BME280;61452;40.054;4.110;2022-08-19T12:03:51;101874.94;;;27.21;62.35
73240;BME280;61452;40.054;4.110;2022-08-19T12:08:58;101880.91;;;27.32;62.99
73240;BME280;61452;40.054;4.110;2022-08-19T12:14:01;101880.06;;;27.32;62.22
73240;BME280;61452;40.054;4.110;2022-08-19T12:19:04;101892.84;;;27.30;58.69
73240;BME280;61452;40.054;4.110;2022-08-19T12:24:06;101882.13;;;27.38;61.62
73240;BME280;61452;40.054;4.110;2022-08-19T12:29:09;101870.81;;;27.34;59.01
73240;BME280;61452;40.054;4.110;2022-08-19T12:34:11;101881.28;;;27.37;59.82
73240;BME280;61452;40.054;4.110;2022-08-19T12:39:13;101884.50;;;27.41;64.78
73240;BME280;61452;40.054;4.110;2022-08-19T12:44:15;101882.34;;;27.45;63.17
73240;BME280;61452;40.054;4.110;2022-08-19T12:49:20;101890.94;;;27.48;63.09
73240;BME280;61452;40.054;4.110;2022-08-19T12:54:42;101872.09;;;27.48;63.96
73240;BME280;61452;40.054;4.110;2022-08-19T12:59:52;101866.44;;;27.51;64.72
73240;BME280;61452;40.054;4.110;2022-08-19T13:04:55;101867.09;;;27.53;64.09
73240;BME280;61452;40.054;4.110;2022-08-19T13:09:58;101865.81;;;27.65;62.33
73240;BME280;61452;40.054;4.110;2022-08-19T13:15:00;101875.97;;;27.71;65.74
73240;BME280;61452;40.054;4.110;2022-08-19T13:20:03;101878.34;;;27.74;62.81
73240;BME280;61452;40.054;4.110;2022-08-19T13:25:09;101868.28;;;27.76;64.39
73240;BME280;61452;40.054;4.110;2022-08-19T13:30:12;101880.91;;;27.76;63.70
73240;BME280;61452;40.054;4.110;2022-08-19T13:35:33;101864.72;;;27.76;62.77
73240;BME280;61452;40.054;4.110;2022-08-19T13:40:36;101858.34;;;27.77;62.77
73240;BME280;61452;40.054;4.110;2022-08-19T13:45:40;101859.00;;;27.79;62.60
73240;BME280;61452;40.054;4.110;2022-08-19T13:50:44;101861.38;;;27.82;64.57
73240;BME280;61452;40.054;4.110;2022-08-19T13:55:48;101865.78;;;27.83;62.62
73240;BME280;61452;40.054;4.110;2022-08-19T14:00:52;101858.16;;;27.78;62.95
73240;BME280;61452;40.054;4.110;2022-08-19T14:05:54;101862.03;;;27.76;63.37
73240;BME280;61452;40.054;4.110;2022-08-19T14:10:56;101870.97;;;27.76;64.63
73240;BME280;61452;40.054;4.110;2022-08-19T14:15:58;101862.81;;;27.68;65.03
73240;BME280;61452;40.054;4.110;2022-08-19T14:21:00;101859.28;;;27.68;63.05
73240;BME280;61452;40.054;4.110;2022-08-19T14:26:04;101865.66;;;27.67;64.28
73240;BME280;61452;40.054;4.110;2022-08-19T14:31:08;101863.66;;;27.69;64.42
73240;BME280;61452;40.054;4.110;2022-08-19T14:36:10;101856.59;;;27.68;64.58
73240;BME280;61452;40.054;4.110;2022-08-19T14:41:16;101854.72;;;27.68;64.58
73240;BME280;61452;40.054;4.110;2022-08-19T14:46:24;101851.09;;;27.52;66.75
73240;BME280;61452;40.054;4.110;2022-08-19T14:51:30;101852.47;;;27.56;67.15
73240;BME280;61452;40.054;4.110;2022-08-19T14:56:32;101847.44;;;27.61;69.12
73240;BME280;61452;40.054;4.110;2022-08-19T15:01:35;101848.44;;;27.60;67.45
73240;BME280;61452;40.054;4.110;2022-08-19T15:06:37;101846.44;;;27.62;66.90
73240;BME280;61452;40.054;4.110;2022-08-19T15:11:39;101853.53;;;27.63;66.99
73240;BME280;61452;40.054;4.110;2022-08-19T15:16:42;101846.91;;;27.57;65.87
73240;BME280;61452;40.054;4.110;2022-08-19T15:21:45;101846.59;;;27.60;65.94
73240;BME280;61452;40.054;4.110;2022-08-19T15:26:47;101838.97;;;27.56;65.52
73240;BME280;61452;40.054;4.110;2022-08-19T15:31:49;101837.50;;;27.61;66.59
73240;BME280;61452;40.054;4.110;2022-08-19T15:36:54;101834.66;;;27.63;66.07
73240;BME280;61452;40.054;4.110;2022-08-19T15:41:57;101824.03;;;27.61;67.12
73240;BME280;61452;40.054;4.110;2022-08-19T15:47:01;101819.69;;;27.68;66.63
73240;BME280;61452;40.054;4.110;2022-08-19T15:52:04;101824.72;;;27.71;67.31
73240;BME280;61452;40.054;4.110;2022-08-19T15:57:08;101827.47;;;27.80;66.24
73240;BME280;61452;40.054;4.110;2022-08-19T16:02:24;101818.25;;;27.90;66.78
73240;BME280;61452;40.054;4.110;2022-08-19T16:07:46;101816.59;;;27.97;65.40
73240;BME280;61452;40.054;4.110;2022-08-19T16:12:49;101813.59;;;28.00;64.96
73240;BME280;61452;40.054;4.110;2022-08-19T16:17:51;101810.25;;;28.06;65.36
73240;BME280;61452;40.054;4.110;2022-08-19T16:22:58;101806.34;;;28.09;65.37
73240;BME280;61452;40.054;4.110;2022-08-19T16:28:00;101804.06;;;28.14;65.13
73240;BME280;61452;40.054;4.110;2022-08-19T16:33:09;101810.31;;;28.23;64.42
73240;BME280;61452;40.054;4.110;2022-08-19T16:38:11;101805.78;;;28.31;63.53
73240;BME280;61452;40.054;4.110;2022-08-19T16:43:13;101809.53;;;28.38;63.51
73240;BME280;61452;40.054;4.110;2022-08-19T16:48:15;101799.03;;;28.35;63.30
73240;BME280;61452;40.054;4.110;2022-08-19T16:53:20;101805.78;;;28.39;62.33
73240;BME280;61452;40.054;4.110;2022-08-19T16:58:25;101791.81;;;28.44;63.53
73240;BME280;61452;40.054;4.110;2022-08-19T17:03:29;101799.72;;;28.45;62.30
73240;BME280;61452;40.054;4.110;2022-08-19T17:08:37;101795.53;;;28.43;62.82
73240;BME280;61452;40.054;4.110;2022-08-19T17:13:41;101787.28;;;28.44;61.39
73240;BME280;61452;40.054;4.110;2022-08-19T17:18:43;101781.53;;;28.47;62.94
73240;BME280;61452;40.054;4.110;2022-08-19T17:23:46;101785.06;;;28.48;62.51
73240;BME280;61452;40.054;4.110;2022-08-19T17:28:50;101787.09;;;28.54;61.44
73240;BME280;61452;40.054;4.110;2022-08-19T17:33:53;101784.94;;;28.58;62.61
73240;BME280;61452;40.054;4.110;2022-08-19T17:38:57;101790.97;;;28.60;61.62
73240;BME280;61452;40.054;4.110;2022-08-19T17:44:02;101798.25;;;28.59;62.62
73240;BME280;61452;40.054;4.110;2022-08-19T17:49:04;101805.31;;;28.52;62.16
73240;BME280;61452;40.054;4.110;2022-08-19T17:54:09;101812.59;;;28.51;61.30
73240;BME280;61452;40.054;4.110;2022-08-19T17:59:13;101808.69;;;28.46;61.90
73240;BME280;61452;40.054;4.110;2022-08-19T18:04:16;101819.28;;;28.39;61.56
73240;BME280;61452;40.054;4.110;2022-08-19T18:09:23;101816.59;;;28.31;61.65
73240;BME280;61452;40.054;4.110;2022-08-19T18:14:32;101812.03;;;28.32;61.60
73240;BME280;61452;40.054;4.110;2022-08-19T18:19:36;101827.38;;;28.31;60.71
73240;BME280;61452;40.054;4.110;2022-08-19T18:24:42;101831.25;;;28.29;60.47
73240;BME280;61452;40.054;4.110;2022-08-19T18:29:47;101828.00;;;28.17;62.16
73240;BME280;61452;40.054;4.110;2022-08-19T18:34:49;101836.97;;;27.92;61.82
73240;BME280;61452;40.054;4.110;2022-08-19T18:39:51;101841.31;;;27.76;62.15
73240;BME280;61452;40.054;4.110;2022-08-19T18:45:11;101838.50;;;27.60;62.78
73240;BME280;61452;40.054;4.110;2022-08-19T18:50:32;101839.53;;;27.42;62.25
73240;BME280;61452;40.054;4.110;2022-08-19T18:55:34;101845.03;;;27.32;64.55
73240;BME280;61452;40.054;4.110;2022-08-19T19:00:36;101849.56;;;27.31;63.74
73240;BME280;61452;40.054;4.110;2022-08-19T19:05:38;101855.59;;;27.25;63.96
73240;BME280;61452;40.054;4.110;2022-08-19T19:10:40;101858.44;;;27.24;64.50
73240;BME280;61452;40.054;4.110;2022-08-19T19:15:42;101865.28;;;27.18;65.32
73240;BME280;61452;40.054;4.110;2022-08-19T19:20:44;101868.13;;;27.17;62.88
73240;BME280;61452;40.054;4.110;2022-08-19T19:25:47;101882.09;;;27.12;63.39
73240;BME280;61452;40.054;4.110;2022-08-19T19:30:53;101894.00;;;27.10;63.93
73240;BME280;61452;40.054;4.110;2022-08-19T19:35:58;101886.72;;;27.02;63.75
73240;BME280;61452;40.054;4.110;2022-08-19T19:41:00;101897.25;;;26.95;62.86
73240;BME280;61452;40.054;4.110;2022-08-19T19:46:03;101894.44;;;26.87;63.94
73240;BME280;61452;40.054;4.110;2022-08-19T19:51:08;101903.38;;;26.88;62.46
73240;BME280;61452;40.054;4.110;2022-08-19T19:56:10;101907.06;;;26.87;62.79
73240;BME280;61452;40.054;4.110;2022-08-19T20:01:13;101904.38;;;26.87;63.84
73240;BME280;61452;40.054;4.110;2022-08-19T20:06:25;101907.66;;;26.81;61.45
73240;BME280;61452;40.054;4.110;2022-08-19T20:16:39;101913.91;;;26.81;63.62
73240;BME280;61452;40.054;4.110;2022-08-19T20:21:45;101921.28;;;26.79;65.20
73240;BME280;61452;40.054;4.110;2022-08-19T20:26:52;101933.06;;;26.78;62.18
73240;BME280;61452;40.054;4.110;2022-08-19T20:31:54;101933.34;;;26.75;63.99
73240;BME280;61452;40.054;4.110;2022-08-19T20:37:00;101935.31;;;26.83;63.94
73240;BME280;61452;40.054;4.110;2022-08-19T20:42:03;101934.44;;;26.82;62.80
73240;BME280;61452;40.054;4.110;2022-08-19T20:47:05;101934.31;;;26.84;61.76
73240;BME280;61452;40.054;4.110;2022-08-19T20:52:07;101936.16;;;26.83;62.54
73240;BME280;61452;40.054;4.110;2022-08-19T20:57:09;101940.97;;;26.80;62.75
73240;BME280;61452;40.054;4.110;2022-08-19T21:02:12;101942.38;;;26.84;62.62
73240;BME280;61452;40.054;4.110;2022-08-19T21:07:14;101940.97;;;26.89;63.50
73240;BME280;61452;40.054;4.110;2022-08-19T21:12:17;101926.53;;;26.81;63.38
73240;BME280;61452;40.054;4.110;2022-08-19T21:17:20;101948.91;;;26.81;63.39
73240;BME280;61452;40.054;4.110;2022-08-19T21:22:22;101948.75;;;26.83;67.06
73240;BME280;61452;40.054;4.110;2022-08-19T21:27:24;101948.06;;;26.81;64.04
73240;BME280;61452;40.054;4.110;2022-08-19T21:32:26;101955.81;;;26.93;62.87
73240;BME280;61452;40.054;4.110;2022-08-19T21:37:28;101955.66;;;26.95;62.80
73240;BME280;61452;40.054;4.110;2022-08-19T21:42:34;101954.66;;;26.96;65.89
73240;BME280;61452;40.054;4.110;2022-08-19T21:47:36;101961.28;;;27.02;64.88
73240;BME280;61452;40.054;4.110;2022-08-19T21:52:38;101961.56;;;26.98;66.40
73240;BME280;61452;40.054;4.110;2022-08-19T21:57:41;101957.97;;;27.08;66.04
73240;BME280;61452;40.054;4.110;2022-08-19T22:02:43;101963.50;;;27.06;66.16
73240;BME280;61452;40.054;4.110;2022-08-19T22:07:46;101963.50;;;27.06;66.53
73240;BME280;61452;40.054;4.110;2022-08-19T22:12:48;101963.38;;;27.08;66.62
73240;BME280;61452;40.054;4.110;2022-08-19T22:17:52;101962.13;;;27.02;66.72
73240;BME280;61452;40.054;4.110;2022-08-19T22:22:59;101968.38;;;27.03;66.15
73240;BME280;61452;40.054;4.110;2022-08-19T22:28:04;101977.97;;;27.05;65.04
73240;BME280;61452;40.054;4.110;2022-08-19T22:33:15;101980.00;;;27.03;65.36
73240;BME280;61452;40.054;4.110;2022-08-19T22:38:17;101975.75;;;27.01;64.71
73240;BME280;61452;40.054;4.110;2022-08-19T22:43:22;101966.13;;;26.98;64.73
73240;BME280;61452;40.054;4.110;2022-08-19T22:48:27;101979.56;;;26.98;64.66
73240;BME280;61452;40.054;4.110;2022-08-19T22:53:31;101982.44;;;26.96;64.87
73240;BME280;61452;40.054;4.110;2022-08-19T22:58:35;101983.28;;;26.97;64.72
73240;BME280;61452;40.054;4.110;2022-08-19T23:03:37;101970.81;;;26.96;64.68
73240;BME280;61452;40.054;4.110;2022-08-19T23:08:41;101968.41;;;26.93;64.38
73240;BME280;61452;40.054;4.110;2022-08-19T23:13:43;101971.69;;;26.87;64.32
73240;BME280;61452;40.054;4.110;2022-08-19T23:18:45;101954.16;;;26.83;63.78
73240;BME280;61452;40.054;4.110;2022-08-19T23:23:48;101967.22;;;26.78;64.12
73240;BME280;61452;40.054;4.110;2022-08-19T23:28:50;101961.41;;;26.73;64.41
73240;BME280;61452;40.054;4.110;2022-08-19T23:34:11;101930.63;;;26.57;64.25
73240;BME280;61452;40.054;4.110;2022-08-19T23:39:13;101959.66;;;26.64;64.00
73240;BME280;61452;40.054;4.110;2022-08-19T23:44:15;101952.28;;;26.66;64.10
73240;BME280;61452;40.054;4.110;2022-08-19T23:49:19;101944.50;;;26.63;64.15
73240;BME280;61452;40.054;4.110;2022-08-19T23:54:21;101950.88;;;26.62;64.08
73240;BME280;61452;40.054;4.110;2022-08-19T23:59:34;101932.47;;;26.57;64.03
